createdAt,value
2019-04-05T00:00:01.577Z,17.50
2019-04-05T00:02:32.223Z,17.90
2019-04-05T00:05:02.895Z,19.97
2019-04-05T00:07:33.687Z,19.30
2019-04-05T00:10:04.974Z,18.67
2019-04-05T00:12:35.889Z,18.07
2019-04-05T00:15:15.301Z,19.63
2019-04-05T00:17:39.442Z,19.27
2019-04-05T00:20:10.180Z,18.50
2019-04-05T00:22:40.916Z,19.23
2019-04-05T00:25:11.761Z,18.33
2019-04-05T00:27:42.458Z,19.77
2019-04-05T00:30:13.544Z,19.50
2019-04-05T00:32:44.251Z,18.80
2019-04-05T00:35:15.007Z,19.70
2019-04-05T00:37:45.734Z,20.17
2019-04-05T00:40:16.481Z,18.80
2019-04-05T00:42:47.166Z,17.40
2019-04-05T00:45:27.643Z,18.97
2019-04-05T00:47:50.258Z,19.70
2019-04-05T00:50:21.116Z,19.90
2019-04-05T00:52:51.854Z,18.23
2019-04-05T00:55:22.609Z,18.33
2019-04-05T00:57:53.345Z,19.30
2019-04-05T01:00:24.114Z,19.10
2019-04-05T01:02:54.819Z,17.30
2019-04-05T01:05:25.666Z,18.77
2019-04-05T01:07:56.405Z,18.97
2019-04-05T01:10:27.138Z,18.50
2019-04-05T01:12:57.865Z,18.80
2019-04-05T01:15:40.301Z,19.03
2019-04-05T01:18:00.937Z,18.70
2019-04-05T01:20:35.774Z,18.87
2019-04-05T01:23:06.491Z,19.83
2019-04-05T01:25:38.037Z,20.10
2019-04-05T01:28:08.745Z,18.73
2019-04-05T01:30:39.590Z,20.63
2019-04-05T01:33:10.307Z,20.87
2019-04-05T01:35:41.074Z,20.40
2019-04-05T01:38:12.060Z,19.20
2019-04-05T01:40:44.337Z,20.77
2019-04-05T01:43:15.492Z,20.17
2019-04-05T01:45:53.747Z,19.93
2019-04-05T01:48:18.935Z,20.83
2019-04-05T01:50:49.652Z,19.27
2019-04-05T01:53:20.357Z,20.27
2019-04-05T01:55:51.096Z,20.40
2019-04-05T01:58:21.847Z,18.50
2019-04-05T02:00:52.557Z,19.13
2019-04-05T02:03:23.264Z,20.20
2019-04-05T02:05:54.060Z,19.17
2019-04-05T02:08:24.816Z,19.73
2019-04-05T02:10:56.123Z,19.07
2019-04-05T02:13:27.259Z,18.60
2019-04-05T02:16:06.034Z,18.67
2019-04-05T02:18:30.353Z,18.63
2019-04-05T02:21:01.080Z,19.00
2019-04-05T02:23:31.839Z,16.77
2019-04-05T02:26:02.572Z,18.57
2019-04-05T02:28:33.318Z,19.17
2019-04-05T02:31:04.007Z,20.97
2019-04-05T02:33:34.752Z,19.77
2019-04-05T02:36:05.478Z,20.07
2019-04-05T02:38:36.214Z,20.60
2019-04-05T02:41:07.021Z,18.57
2019-04-05T02:43:39.198Z,20.13
2019-04-05T02:46:23.567Z,18.00
2019-04-05T02:48:46.261Z,15.13
2019-04-05T02:51:20.346Z,15.93
2019-04-05T02:53:52.528Z,15.63
2019-04-05T02:56:25.652Z,17.40
2019-04-05T02:58:56.768Z,16.63
2019-04-05T03:01:27.888Z,18.87
2019-04-05T03:03:59.163Z,17.43
2019-04-05T03:06:30.203Z,19.40
2019-04-05T03:09:01.449Z,20.93
2019-04-05T03:11:33.991Z,21.23
2019-04-05T03:14:05.651Z,20.63
2019-04-05T03:16:41.694Z,20.53
2019-04-05T03:19:17.749Z,23.97
2019-04-05T03:21:52.053Z,23.23
2019-04-05T03:24:25.990Z,24.60
2019-04-05T03:27:02.570Z,21.53
2019-04-05T03:29:33.386Z,21.47
2019-04-05T03:32:04.402Z,21.80
2019-04-05T03:34:35.836Z,20.17
2019-04-05T03:37:07.072Z,20.47
2019-04-05T03:39:37.899Z,19.27
2019-04-05T03:42:09.207Z,20.20
2019-04-05T03:44:40.624Z,20.57
2019-04-05T03:47:11.789Z,20.60
2019-04-05T03:49:42.625Z,20.57
2019-04-05T03:52:13.493Z,21.63
2019-04-05T03:54:44.236Z,21.77
2019-04-05T03:57:14.935Z,19.93
2019-04-05T03:59:45.687Z,20.13
2019-04-05T04:02:16.686Z,20.63
2019-04-05T04:04:47.444Z,20.00
2019-04-05T04:07:18.510Z,21.30
2019-04-05T04:09:49.235Z,21.23
2019-04-05T04:12:19.952Z,22.93
2019-04-05T04:14:50.729Z,23.83
2019-04-05T04:17:22.336Z,24.60
2019-04-05T04:19:53.090Z,24.70
2019-04-05T04:22:30.998Z,23.97
2019-04-05T04:25:01.830Z,23.90
2019-04-05T04:27:32.662Z,23.30
2019-04-05T04:30:03.708Z,23.23
2019-04-05T04:32:34.407Z,24.43
2019-04-05T04:35:05.630Z,24.10
2019-04-05T04:37:36.362Z,23.47
2019-04-05T04:40:07.644Z,23.93
2019-04-05T04:42:38.671Z,22.97
2019-04-05T04:45:12.499Z,22.50
2019-04-05T04:47:41.830Z,17.67
2019-04-05T04:50:12.991Z,18.50
2019-04-05T04:52:44.207Z,17.77
2019-04-05T04:55:14.937Z,17.37
2019-04-05T04:57:46.189Z,18.07
2019-04-05T05:00:17.145Z,15.87
2019-04-05T05:02:47.775Z,18.27
2019-04-05T05:05:19.508Z,17.93
2019-04-05T05:07:51.094Z,20.47
2019-04-05T05:10:21.992Z,21.87
2019-04-05T05:12:52.708Z,21.60
2019-04-05T05:15:23.714Z,23.87
2019-04-05T05:17:58.895Z,23.57
2019-04-05T05:20:27.087Z,23.27
2019-04-05T05:22:58.059Z,24.90
2019-04-05T05:25:28.740Z,22.77
2019-04-05T05:27:59.479Z,23.27
2019-04-05T05:30:30.803Z,18.80
2019-04-05T05:33:01.552Z,17.43
2019-04-05T05:35:32.666Z,19.03
2019-04-05T05:38:03.896Z,18.60
2019-04-05T05:40:35.558Z,20.70
2019-04-05T05:43:06.586Z,20.40
2019-04-05T05:45:37.292Z,20.37
2019-04-05T05:48:08.678Z,19.37
2019-04-05T05:50:39.729Z,18.97
2019-04-05T05:53:10.474Z,20.27
2019-04-05T05:55:41.227Z,21.30
2019-04-05T05:58:11.995Z,21.90
2019-04-05T06:00:42.727Z,24.73
2019-04-05T06:03:16.402Z,25.80
2019-04-05T06:05:45.883Z,26.50
2019-04-05T06:08:16.680Z,27.53
2019-04-05T06:10:47.427Z,27.47
2019-04-05T06:13:18.203Z,26.43
2019-04-05T06:15:48.940Z,26.23
2019-04-05T06:18:38.749Z,26.33
2019-04-05T06:21:09.503Z,25.30
2019-04-05T06:23:40.282Z,25.17
2019-04-05T06:26:11.038Z,25.07
2019-04-05T06:28:41.902Z,26.00
2019-04-05T06:31:12.653Z,26.43
2019-04-05T06:33:43.397Z,25.90
2019-04-05T06:36:14.104Z,25.33
2019-04-05T06:38:44.920Z,25.80
2019-04-05T06:41:15.686Z,25.40
2019-04-05T06:43:46.452Z,25.70
2019-04-05T06:46:17.219Z,26.27
2019-04-05T06:48:47.988Z,26.30
2019-04-05T06:51:18.733Z,24.53
2019-04-05T06:53:49.572Z,25.10
2019-04-05T06:56:20.299Z,23.60
2019-04-05T06:58:51.050Z,23.10
2019-04-05T07:01:21.809Z,23.30
2019-04-05T07:03:55.129Z,21.70
2019-04-05T07:06:25.050Z,21.90
2019-04-05T07:08:55.952Z,20.77
2019-04-05T07:11:26.679Z,19.87
2019-04-05T07:13:57.451Z,18.63
2019-04-05T07:16:28.195Z,18.23
2019-04-05T07:18:59.281Z,19.27
2019-04-05T07:21:30.050Z,17.40
2019-04-05T07:24:00.834Z,17.80
2019-04-05T07:26:31.560Z,16.13
2019-04-05T07:29:02.337Z,16.47
2019-04-05T07:31:33.093Z,16.37
2019-04-05T07:34:03.881Z,16.50
2019-04-05T07:36:34.662Z,15.03
2019-04-05T07:39:07.202Z,15.80
2019-04-05T07:41:37.968Z,14.50
2019-04-05T07:44:08.745Z,15.67
2019-04-05T07:46:39.522Z,19.40
2019-04-05T07:49:10.297Z,15.77
2019-04-05T07:51:41.034Z,16.23
2019-04-05T07:54:11.760Z,14.53
2019-04-05T07:56:42.556Z,14.43
2019-04-05T07:59:13.313Z,15.13
2019-04-05T08:01:44.108Z,14.27
2019-04-05T08:04:15.036Z,14.30
2019-04-05T08:06:48.434Z,13.80
2019-04-05T08:09:20.234Z,13.63
2019-04-05T08:11:51.105Z,11.87
2019-04-05T08:14:22.653Z,12.53
2019-04-05T08:16:53.430Z,13.23
2019-04-05T08:19:24.167Z,12.70
2019-04-05T08:21:54.951Z,12.23
2019-04-05T08:24:26.028Z,12.83
2019-04-05T08:26:56.825Z,14.03
2019-04-05T08:29:27.570Z,13.47
2019-04-05T08:31:58.366Z,14.13
2019-04-05T08:34:29.142Z,13.13
2019-04-05T08:36:59.930Z,15.07
2019-04-05T08:39:30.696Z,12.40
2019-04-05T08:42:01.661Z,12.23
2019-04-05T08:44:32.438Z,13.47
2019-04-05T08:47:03.186Z,12.30
2019-04-05T08:49:33.910Z,11.47
2019-04-05T08:52:04.686Z,11.60
2019-04-05T08:54:36.912Z,10.90
2019-04-05T08:57:07.942Z,10.47
2019-04-05T08:59:38.698Z,10.27
2019-04-05T09:02:09.422Z,10.63
2019-04-05T09:04:40.181Z,12.23
2019-04-05T09:07:10.964Z,11.53
2019-04-05T09:09:41.719Z,11.87
2019-04-05T09:12:12.478Z,12.47
2019-04-05T09:14:43.195Z,12.47
2019-04-05T09:17:13.849Z,12.93
2019-04-05T09:19:44.566Z,13.50
2019-04-05T09:22:15.295Z,12.90
2019-04-05T09:24:46.056Z,12.83
2019-04-05T09:27:16.834Z,12.63
2019-04-05T09:29:47.612Z,12.23
2019-04-05T09:32:18.457Z,12.50
2019-04-05T09:34:49.156Z,12.57
2019-04-05T09:37:19.933Z,11.93
2019-04-05T09:39:50.626Z,12.67
2019-04-05T09:42:21.362Z,12.53
2019-04-05T09:44:52.079Z,12.23
2019-04-05T09:47:22.905Z,11.77
2019-04-05T09:49:53.651Z,11.77
2019-04-05T09:52:24.379Z,12.17
2019-04-05T09:54:55.124Z,11.97
2019-04-05T09:57:25.850Z,13.17
2019-04-05T09:59:56.589Z,14.77
2019-04-05T10:02:27.363Z,13.63
2019-04-05T10:04:58.049Z,10.97
2019-04-05T10:07:28.806Z,9.13
2019-04-05T10:09:59.512Z,9.57
2019-04-05T10:12:30.260Z,9.70
2019-04-05T10:15:00.945Z,9.23
2019-04-05T10:17:31.641Z,9.33
2019-04-05T10:20:02.271Z,10.27
2019-04-05T10:22:33.023Z,10.23
2019-04-05T10:25:03.970Z,9.00
2019-04-05T10:27:34.676Z,8.70
2019-04-05T10:30:07.903Z,9.33
2019-04-05T10:32:38.629Z,9.50
2019-04-05T10:35:09.567Z,10.90
2019-04-05T10:37:40.263Z,10.83
2019-04-05T10:40:11.409Z,10.47
2019-04-05T10:42:42.079Z,10.80
2019-04-05T10:45:13.431Z,10.67
2019-04-05T10:47:44.161Z,10.90
2019-04-05T10:50:15.814Z,10.87
2019-04-05T10:52:46.520Z,10.63
2019-04-05T10:55:17.277Z,9.83
2019-04-05T10:57:48.363Z,10.73
2019-04-05T11:00:19.840Z,10.80
2019-04-05T11:02:50.587Z,10.43
2019-04-05T11:05:21.322Z,9.77
2019-04-05T11:07:52.098Z,10.60
2019-04-05T11:10:22.865Z,9.70
2019-04-05T11:12:54.103Z,9.77
2019-04-05T11:15:24.877Z,9.63
2019-04-05T11:17:55.666Z,10.03
2019-04-05T11:20:26.402Z,9.70
2019-04-05T11:22:57.132Z,9.37
2019-04-05T11:25:27.923Z,9.33
2019-04-05T11:27:58.992Z,9.07
2019-04-05T11:30:43.563Z,10.03
2019-04-05T11:33:14.604Z,9.10
2019-04-05T11:35:45.380Z,10.53
2019-04-05T11:38:16.527Z,9.97
2019-04-05T11:40:48.233Z,9.20
2019-04-05T11:43:21.270Z,10.23
2019-04-05T11:45:53.396Z,10.83
2019-04-05T11:48:24.163Z,10.80
2019-04-05T11:50:54.932Z,9.87
2019-04-05T11:53:25.665Z,10.67
2019-04-05T11:55:56.432Z,10.67
2019-04-05T11:58:27.149Z,11.20
2019-04-05T12:01:23.318Z,9.90
2019-04-05T12:03:52.836Z,9.77
2019-04-05T12:06:23.572Z,10.57
2019-04-05T12:08:54.388Z,10.47
2019-04-05T12:11:28.195Z,10.57
2019-04-05T12:13:58.923Z,11.00
2019-04-05T12:16:29.698Z,10.97
2019-04-05T12:19:00.425Z,11.07
2019-04-05T12:21:32.605Z,11.00
2019-04-05T12:24:03.557Z,11.80
2019-04-05T12:26:34.634Z,10.77
2019-04-05T12:29:06.010Z,12.23
2019-04-05T12:31:36.706Z,11.23
2019-04-05T12:34:07.463Z,11.80
2019-04-05T12:36:38.256Z,13.10
2019-04-05T12:39:09.266Z,12.47
2019-04-05T12:41:40.867Z,12.23
2019-04-05T12:44:15.190Z,12.33
2019-04-05T12:46:45.852Z,12.63
2019-04-05T12:49:17.071Z,12.50
2019-04-05T12:51:47.874Z,12.70
2019-04-05T12:54:18.653Z,12.10
2019-04-05T12:56:49.420Z,12.13
2019-04-05T12:59:20.136Z,12.27
2019-04-05T13:01:50.962Z,12.40
2019-04-05T13:04:21.688Z,14.27
2019-04-05T13:06:53.676Z,12.47
2019-04-05T13:09:24.780Z,13.60
2019-04-05T13:11:57.294Z,13.23
2019-04-05T13:14:28.284Z,13.63
2019-04-05T13:17:01.784Z,14.23
2019-04-05T13:19:31.408Z,13.67
2019-04-05T13:22:02.976Z,13.00
2019-04-05T13:24:34.310Z,12.90
2019-04-05T13:27:05.227Z,12.43
2019-04-05T13:29:35.973Z,12.53
2019-04-05T13:32:06.739Z,12.53
2019-04-05T13:34:37.445Z,12.83
2019-04-05T13:37:19.573Z,13.00
2019-04-05T13:39:40.566Z,11.90
2019-04-05T13:42:12.206Z,12.47
2019-04-05T13:44:42.914Z,12.60
2019-04-05T13:47:13.660Z,12.87
2019-04-05T13:49:44.372Z,13.00
2019-04-05T13:52:15.109Z,12.23
2019-04-05T13:54:45.769Z,12.93
2019-04-05T13:57:16.562Z,12.93
2019-04-05T13:59:48.970Z,11.90
2019-04-05T14:02:21.180Z,12.27
2019-04-05T14:04:53.959Z,13.30
2019-04-05T14:07:25.269Z,14.00
2019-04-05T14:09:56.114Z,13.53
2019-04-05T14:12:26.810Z,13.87
2019-04-05T14:14:57.536Z,12.90
2019-04-05T14:17:28.248Z,13.30
2019-04-05T14:19:58.965Z,14.47
2019-04-05T14:22:29.677Z,12.97
2019-04-05T14:25:00.401Z,13.27
2019-04-05T14:27:34.820Z,12.90
2019-04-05T14:30:03.635Z,14.30
2019-04-05T14:32:34.332Z,13.87
2019-04-05T14:35:07.812Z,14.63
2019-04-05T14:37:37.894Z,12.83
2019-04-05T14:40:09.134Z,13.50
2019-04-05T14:42:39.879Z,13.23
2019-04-05T14:45:11.125Z,14.73
2019-04-05T14:47:41.835Z,12.77
2019-04-05T14:50:15.814Z,13.17
2019-04-05T14:52:45.572Z,14.07
2019-04-05T14:55:16.332Z,14.30
2019-04-05T14:57:47.155Z,14.43
2019-04-05T15:00:18.601Z,13.17
2019-04-05T15:02:49.307Z,14.23
2019-04-05T15:05:20.094Z,14.70
2019-04-05T15:07:51.719Z,14.43
2019-04-05T15:10:25.009Z,14.83
2019-04-05T15:12:54.853Z,14.43
2019-04-05T15:15:25.580Z,15.73
2019-04-05T15:17:56.346Z,15.17
2019-04-05T15:20:27.092Z,15.27
2019-04-05T15:22:57.849Z,15.07
2019-04-05T15:25:28.626Z,16.17
2019-04-05T15:27:59.385Z,22.47
2019-04-05T15:30:30.168Z,16.73
2019-04-05T15:33:03.744Z,14.70
2019-04-05T15:35:34.500Z,15.37
2019-04-05T15:38:05.149Z,14.10
2019-04-05T15:40:36.163Z,15.83
2019-04-05T15:43:06.859Z,15.37
2019-04-05T15:45:37.685Z,14.70
2019-04-05T15:48:08.443Z,14.00
2019-04-05T15:50:39.238Z,15.57
2019-04-05T15:53:09.975Z,15.73
2019-04-05T15:55:40.622Z,15.87
2019-04-05T15:58:11.349Z,15.23
2019-04-05T16:00:44.265Z,14.87
2019-04-05T16:03:15.452Z,15.77
2019-04-05T16:05:47.119Z,16.17
2019-04-05T16:08:18.984Z,15.00
2019-04-05T16:10:49.750Z,17.50
2019-04-05T16:13:20.507Z,16.03
2019-04-05T16:15:51.273Z,16.97
2019-04-05T16:18:22.040Z,17.07
2019-04-05T16:20:52.851Z,17.43
2019-04-05T16:23:24.071Z,19.37
2019-04-05T16:25:54.828Z,16.50
2019-04-05T16:28:25.565Z,17.33
2019-04-05T16:30:56.331Z,17.70
2019-04-05T16:33:27.186Z,18.87
2019-04-05T16:35:58.150Z,19.60
2019-04-05T16:38:28.820Z,18.77
2019-04-05T16:40:59.626Z,19.30
2019-04-05T16:43:30.327Z,18.60
2019-04-05T16:46:01.248Z,20.43
2019-04-05T16:48:31.995Z,18.97
2019-04-05T16:51:02.760Z,19.03
2019-04-05T16:53:33.517Z,20.07
2019-04-05T16:56:04.459Z,21.33
2019-04-05T16:58:35.237Z,21.87
2019-04-05T17:01:05.996Z,21.33
2019-04-05T17:03:36.837Z,22.73
2019-04-05T17:06:07.579Z,22.73
2019-04-05T17:08:38.426Z,22.60
2019-04-05T17:11:09.207Z,21.73
2019-04-05T17:13:39.998Z,21.67
2019-04-05T17:16:10.829Z,23.97
2019-04-05T17:18:41.665Z,23.67
2019-04-05T17:21:12.409Z,22.20
2019-04-05T17:23:43.236Z,23.53
2019-04-05T17:26:14.009Z,23.63
2019-04-05T17:28:44.859Z,23.70
2019-04-05T17:31:15.627Z,24.53
2019-04-05T17:33:46.412Z,23.73
2019-04-05T17:36:17.233Z,22.70
2019-04-05T17:38:48.049Z,22.90
2019-04-05T17:41:18.864Z,25.03
2019-04-05T17:43:49.674Z,23.80
2019-04-05T17:46:20.382Z,23.50
2019-04-05T17:48:51.940Z,24.33
2019-04-05T17:51:22.820Z,24.20
2019-04-05T17:53:53.704Z,25.70
2019-04-05T17:56:24.457Z,24.97
2019-04-05T17:58:56.664Z,25.30
2019-04-05T18:01:27.533Z,25.07
2019-04-05T18:03:58.371Z,25.37
2019-04-05T18:06:29.155Z,25.63
2019-04-05T18:09:00.050Z,24.40
2019-04-05T18:11:30.806Z,23.23
2019-04-05T18:14:01.620Z,24.63
2019-04-05T18:16:32.419Z,22.63
2019-04-05T18:19:03.257Z,23.97
2019-04-05T18:21:34.019Z,22.60
2019-04-05T18:24:04.859Z,23.13
2019-04-05T18:26:35.622Z,23.33
2019-04-05T18:29:06.511Z,23.50
2019-04-05T18:31:37.215Z,21.43
2019-04-05T18:34:08.012Z,20.77
2019-04-05T18:36:38.747Z,22.20
2019-04-05T18:39:10.118Z,21.50
2019-04-05T18:41:40.954Z,20.50
2019-04-05T18:44:11.686Z,20.90
2019-04-05T18:46:42.489Z,21.93
2019-04-05T18:49:13.283Z,22.03
2019-04-05T18:51:43.995Z,21.97
2019-04-05T18:54:14.752Z,21.80
2019-04-05T18:56:45.489Z,22.60
2019-04-05T18:59:16.375Z,21.23
2019-04-05T19:01:47.083Z,20.17
2019-04-05T19:04:17.837Z,20.07
2019-04-05T19:06:48.613Z,21.60
2019-04-05T19:09:19.527Z,22.00
2019-04-05T19:11:50.306Z,22.13
2019-04-05T19:14:21.072Z,22.73
2019-04-05T19:16:51.839Z,23.77
2019-04-05T19:19:22.631Z,23.10
2019-04-05T19:21:53.341Z,22.40
2019-04-05T19:24:24.150Z,22.93
2019-04-05T19:26:54.894Z,20.77
2019-04-05T19:29:25.660Z,22.50
2019-04-05T19:49:43.034Z,16.93
2019-04-05T19:52:13.741Z,19.03
2019-04-05T19:54:44.478Z,18.67
2019-04-05T19:57:15.213Z,18.47
2019-04-05T19:59:45.955Z,17.87
2019-04-05T20:02:16.695Z,18.77
2019-04-05T20:04:47.481Z,17.87
2019-04-05T20:07:18.232Z,17.97
2019-04-05T20:09:49.030Z,17.60
2019-04-05T20:12:19.760Z,18.87
2019-04-05T20:14:50.527Z,17.50
2019-04-05T20:17:21.273Z,17.60
2019-04-05T20:19:52.040Z,17.27
2019-04-05T20:22:22.807Z,16.27
2019-04-05T20:24:53.571Z,16.97
2019-04-05T20:27:24.369Z,17.43
2019-04-05T20:29:55.147Z,16.37
2019-04-05T20:32:25.913Z,17.30
2019-04-05T20:34:56.668Z,17.00
2019-04-05T20:37:27.444Z,16.10
2019-04-05T20:39:58.161Z,16.10
2019-04-05T20:42:28.947Z,15.50
2019-04-05T20:44:59.663Z,14.47
2019-04-05T20:47:30.440Z,12.83
2019-04-05T20:50:01.178Z,13.27
2019-04-05T20:52:31.928Z,13.43
2019-04-05T20:55:02.688Z,14.07
2019-04-05T20:57:33.425Z,13.90
2019-04-05T21:00:05.492Z,12.60
2019-04-05T21:02:36.479Z,13.33
2019-04-05T21:05:07.315Z,11.87
2019-04-05T21:07:38.151Z,13.87
2019-04-05T21:10:09.268Z,13.30
2019-04-05T21:12:40.054Z,13.50
2019-04-05T21:15:10.911Z,15.00
2019-04-05T21:17:41.748Z,12.57
2019-04-05T21:20:12.804Z,12.50
2019-04-05T21:22:43.590Z,13.47
2019-04-05T21:25:14.328Z,13.90
2019-04-05T21:27:45.127Z,12.70
2019-04-05T21:30:15.929Z,12.73
2019-04-05T21:32:46.709Z,12.30
2019-04-05T21:35:17.452Z,12.93
2019-04-05T21:37:48.540Z,11.97
2019-04-05T21:40:19.295Z,12.93
2019-04-05T21:42:50.082Z,12.80
2019-04-05T21:45:20.828Z,12.20
2019-04-05T21:47:51.657Z,12.50
2019-04-05T21:50:22.423Z,14.90
2019-04-05T21:52:53.188Z,12.53
2019-04-05T21:55:23.926Z,15.47
2019-04-05T21:57:54.680Z,14.30
2019-04-05T22:00:30.927Z,14.43
2019-04-05T22:03:01.726Z,15.03
2019-04-05T22:05:32.447Z,17.10
2019-04-05T22:08:03.207Z,16.70
2019-04-05T22:10:33.884Z,15.97
2019-04-05T22:13:04.650Z,15.77
2019-04-05T22:15:35.337Z,15.87
2019-04-05T22:18:06.052Z,15.63
2019-04-05T22:20:36.728Z,15.43
2019-04-05T22:23:07.325Z,14.77
2019-04-05T22:25:38.062Z,15.13
2019-04-05T22:28:08.798Z,15.27
2019-04-05T22:30:39.524Z,16.33
2019-04-05T22:33:12.742Z,15.10
2019-04-05T22:35:43.489Z,15.17
2019-04-05T22:38:14.104Z,15.93
2019-04-05T22:40:44.820Z,17.80
2019-04-05T22:43:15.437Z,19.30
2019-04-05T22:45:46.175Z,21.63
2019-04-05T22:48:16.870Z,19.77
2019-04-05T22:50:47.588Z,19.67
2019-04-05T22:53:18.283Z,19.20
2019-04-05T22:55:48.959Z,21.70
2019-04-05T22:58:19.665Z,20.17
2019-04-05T23:00:50.388Z,19.07
2019-04-05T23:03:21.089Z,19.90
2019-04-05T23:05:51.786Z,20.00
2019-04-05T23:08:22.503Z,19.40
2019-04-05T23:10:53.198Z,21.07
2019-04-05T23:13:23.884Z,21.03
2019-04-05T23:15:54.567Z,21.50
2019-04-05T23:18:25.227Z,21.33
2019-04-05T23:20:55.934Z,20.70
2019-04-05T23:23:26.600Z,19.90
2019-04-05T23:25:57.339Z,21.17
2019-04-05T23:28:28.041Z,20.43
2019-04-05T23:30:58.739Z,22.67
2019-04-05T23:33:29.477Z,25.43
2019-04-05T23:36:00.202Z,22.63
2019-04-05T23:38:30.899Z,21.57
2019-04-05T23:41:01.614Z,22.50
2019-04-05T23:43:32.301Z,21.90
2019-04-05T23:46:03.030Z,21.33
2019-04-05T23:48:33.744Z,24.63
2019-04-05T23:51:04.468Z,24.77
2019-04-05T23:53:35.167Z,24.70
2019-04-05T23:56:05.873Z,24.53
2019-04-05T23:58:36.542Z,24.80
